Flight Track Log - Related Links

Times and Time Zones

All times are in EDT time to prevent confusion due to time zone crossing. See the N9576M flight status page for this flight to view local times or setup timezone preferences in your user account.

Time Position Orientation Groundspeed Altitude Reporting Facility
EDT Latitude Longitude Course Direction KTS MPH feet Rate Location/Type
Tue 03:21:06 PM 43.1197 -86.4311 247° West 83 96 7,000  Level Chicago Center
Tue 03:22:08 PM 43.1106 -86.4597 246° West 82 94 7,700 624 Climbing Chicago Center
Tue 03:23:11 PM 43.1017 -86.4919 249° West 88 101 8,300 576 Climbing Chicago Center
Tue 03:24:13 PM 43.0919 -86.5281 250° West 100 115 8,900 532 Climbing Chicago Center
Tue 03:25:00 PM 43.0820 -86.5112 247° West  Level Estimated
Tue 03:25:15 PM 43.0822 -86.5642 250° West 101 116 9,400  Level Chicago Center
Tue 03:26:00 PM 43.0676 -86.5571 247° West  Level Estimated
Tue 03:26:17 PM 43.0683 -86.6167 250° West 121 139 9,600  Level Chicago Center
Tue 03:27:19 PM 43.0517 -86.6658 245° Southwest 141 162 9,400 -97 Descending Chicago Center
Tue 03:28:21 PM 43.0347 -86.7144 245° Southwest 144 166 9,400  Level Chicago Center
Tue 03:29:23 PM 43.0200 -86.7622 247° West 139 160 9,400  Level Chicago Center
Tue 03:30:25 PM 43.0028 -86.8094 244° Southwest 139 160 9,400 48 Level Chicago Center
Tue 03:31:27 PM 42.9856 -86.8686 248° West 140 161 9,500 48 Climbing Chicago Center
Tue 03:32:29 PM 42.9719 -86.9175 249° West 139 160 9,500  Level Chicago Center
Tue 03:33:31 PM 42.9564 -86.9656 246° West 140 161 9,500  Level Chicago Center
Tue 03:34:34 PM 42.9406 -87.0131 246° West 138 159 9,500 48 Level Chicago Center
Tue 03:35:36 PM 42.9258 -87.0611 247° West 138 159 9,600  Climbing Chicago Center
Tue 03:36:38 PM 42.9086 -87.1075 243° Southwest 138 159 9,500 -48 Descending Chicago Center
Tue 03:37:40 PM 42.8892 -87.1653 245° Southwest 140 161 9,500  Level Chicago Center
Tue 03:38:42 PM 42.8744 -87.2139 248° West 140 161 9,500  Level Chicago Center
Tue 03:39:44 PM 42.8586 -87.2617 246° West 139 160 9,500  Level Chicago Center
Tue 03:40:46 PM 42.8419 -87.3108 245° Southwest 142 163 9,500  Level Chicago Center
Tue 03:41:48 PM 42.8244 -87.3589 244° Southwest 143 165 9,500  Level Chicago Center
Tue 03:42:50 PM 42.8050 -87.4125 244° Southwest 140 161 9,500  Level Chicago Center
Tue 03:43:52 PM 42.7881 -87.4614 245° Southwest 142 163 9,500  Level Chicago Center
Tue 03:44:55 PM 42.7764 -87.5125 253° West 142 163 9,500  Level Chicago Center
Tue 03:45:57 PM 42.7619 -87.5614 248° West 140 161 9,500  Level Chicago Center
Tue 03:46:59 PM 42.7433 -87.6181 246° West 140 161 9,500  Level Chicago Center
Tue 03:48:01 PM 42.7267 -87.6681 246° West 143 165 9,500  Level Chicago Center
Tue 03:49:03 PM 42.7122 -87.7153 247° West 138 159 9,500 -48 Level Chicago Center
Tue 03:50:05 PM 42.6956 -87.7653 246° West 142 163 9,400 -48 Descending Chicago Center
Tue 03:51:07 PM 42.6781 -87.8139 244° Southwest 142 163 9,400 48 Level Chicago Center
Tue 03:52:09 PM 42.6572 -87.8703 243° Southwest 143 165 9,500 -48 Climbing Chicago Center
Tue 03:53:11 PM 42.6400 -87.9156 243° Southwest 138 159 9,300 -435 Descending Chicago Center
Tue 03:54:13 PM 42.6156 -87.9650 236° Southwest 154 177 8,600 -919 Descending Chicago Center
Tue 03:55:15 PM 42.5878 -88.0133 232° Southwest 160 184 7,400 -1,016 Descending Chicago Center
Tue 03:56:17 PM 42.5728 -88.0678 250° West 154 177 6,500 -912 Descending Chicago Center
Tue 03:57:20 PM 42.5681 -88.1269 264° West 155 178 5,500 -952 Descending Chicago Center

Login

Don't have an account? Register now (free) for customized features, flight alerts, and more!